createdAt,value
2022-10-14T00:02:07.287Z,100124.47
2022-10-14T00:04:34.273Z,100123.75
2022-10-14T00:07:01.040Z,100122.03
2022-10-14T00:09:27.931Z,100131.91
2022-10-14T00:11:54.784Z,100128.53
2022-10-14T00:14:22.114Z,100133.81
2022-10-14T00:16:52.376Z,100138.25
2022-10-14T00:19:19.392Z,100127.75
2022-10-14T00:21:47.158Z,100130.41
2022-10-14T00:24:16.319Z,100128.72
2022-10-14T00:26:43.563Z,100122.69
2022-10-14T00:29:15.674Z,100121.19
2022-10-14T00:31:42.577Z,100124.56
2022-10-14T00:34:13.280Z,100110.28
2022-10-14T00:36:41.357Z,100107.75
2022-10-14T00:39:08.887Z,100106.25
2022-10-14T00:41:36.177Z,100100.94
2022-10-14T00:44:08.794Z,100093.97
2022-10-14T00:46:47.199Z,100105.50
2022-10-14T00:49:15.855Z,100097.69
2022-10-14T00:51:48.044Z,100099.47
2022-10-14T00:54:18.038Z,100094.41
2022-10-14T00:56:46.376Z,100104.91
2022-10-14T00:59:13.526Z,100104.13
2022-10-14T01:01:40.752Z,100097.25
2022-10-14T01:04:07.606Z,100083.16
2022-10-14T01:07:03.837Z,100079.91
2022-10-14T01:09:33.240Z,100079.78
2022-10-14T01:12:36.470Z,100075.53
2022-10-14T01:15:27.362Z,100077.25
2022-10-14T01:18:15.176Z,100077.44
2022-10-14T01:20:45.852Z,100076.50
2022-10-14T01:23:15.533Z,100079.16
2022-10-14T01:26:06.893Z,100072.16
2022-10-14T01:28:36.393Z,100072.16
2022-10-14T01:31:07.450Z,100070.53
2022-10-14T01:33:46.698Z,100067.81
2022-10-14T01:36:22.664Z,100062.50
2022-10-14T01:39:11.053Z,100060.84
2022-10-14T01:41:42.306Z,100050.28
2022-10-14T01:44:12.102Z,100060.03
2022-10-14T01:46:43.658Z,100044.38
2022-10-14T01:49:24.395Z,100053.06
2022-10-14T01:51:57.688Z,100051.34
2022-10-14T01:54:30.991Z,100053.28
2022-10-14T01:57:02.521Z,100051.56
2022-10-14T01:59:31.536Z,100045.53
2022-10-14T02:01:58.506Z,100038.44
2022-10-14T02:04:25.367Z,100020.84
2022-10-14T02:07:19.013Z,100032.50
2022-10-14T02:09:52.211Z,100025.53
2022-10-14T02:12:40.347Z,100018.31
2022-10-14T02:15:19.903Z,100025.53
2022-10-14T02:18:04.993Z,100017.69
2022-10-14T02:20:41.655Z,100028.06
2022-10-14T02:23:19.580Z,100020.25
2022-10-14T02:25:48.511Z,100008.88
2022-10-14T02:28:22.198Z,100007.94
2022-10-14T02:31:00.537Z,100009.84
2022-10-14T02:33:33.701Z,100018.75
2022-10-14T02:36:03.882Z,100009.84
2022-10-14T02:38:31.946Z,100005.50
2022-10-14T02:41:02.168Z,99997.56
2022-10-14T02:43:29.010Z,100002.00
2022-10-14T02:46:00.595Z,100003.81
2022-10-14T02:48:27.467Z,99995.84
2022-10-14T02:50:54.287Z,99995.84
2022-10-14T02:53:21.270Z,99992.38
2022-10-14T02:55:48.170Z,99988.88
2022-10-14T02:58:15.456Z,99988.03
2022-10-14T03:00:42.638Z,99995.84
2022-10-14T03:03:09.478Z,99991.41
2022-10-14T03:05:36.514Z,99975.66
2022-10-14T03:08:03.376Z,99984.53
2022-10-14T03:10:30.199Z,99992.47
2022-10-14T03:12:57.042Z,99995.03
2022-10-14T03:15:24.205Z,99984.53
2022-10-14T03:17:50.999Z,99982.88
2022-10-14T03:20:17.929Z,99980.22
2022-10-14T03:22:44.771Z,99980.22
2022-10-14T03:25:11.744Z,99980.22
2022-10-14T03:27:38.621Z,99976.72
2022-10-14T03:30:06.019Z,99964.34
2022-10-14T03:32:32.822Z,99946.75
2022-10-14T03:34:59.637Z,99956.59
2022-10-14T03:37:26.446Z,99960.19
2022-10-14T03:39:53.458Z,99956.69
2022-10-14T03:42:20.605Z,99959.47
2022-10-14T03:44:47.645Z,99963.91
2022-10-14T03:47:14.504Z,99963.06
2022-10-14T03:49:41.335Z,99978.19
2022-10-14T03:52:08.211Z,99984.44
2022-10-14T03:54:35.001Z,100002.75
2022-10-14T03:57:01.771Z,100001.91
2022-10-14T03:59:28.650Z,100002.75
2022-10-14T04:01:55.675Z,99995.88
2022-10-14T04:04:22.556Z,100000.22
2022-10-14T04:06:49.444Z,100001.06
2022-10-14T04:09:16.375Z,100002.97
2022-10-14T04:11:43.259Z,99997.66
2022-10-14T04:14:10.055Z,100005.72
2022-10-14T04:16:36.891Z,100011.97
2022-10-14T04:19:04.280Z,100014.72
2022-10-14T04:21:31.123Z,100017.25
2022-10-14T04:23:57.925Z,100007.53
2022-10-14T04:26:24.782Z,100008.50
2022-10-14T04:28:51.670Z,100012.06
2022-10-14T04:31:18.516Z,100021.72
2022-10-14T04:33:45.323Z,100020.03
2022-10-14T04:36:12.108Z,100018.22
2022-10-14T04:38:38.961Z,100012.81
2022-10-14T04:41:05.863Z,100004.03
2022-10-14T04:43:32.699Z,100004.13
2022-10-14T04:45:59.622Z,99990.06
2022-10-14T04:48:26.412Z,99996.19
2022-10-14T04:50:54.201Z,99985.69
2022-10-14T04:53:22.438Z,99988.25
2022-10-14T04:55:49.919Z,99985.69
2022-10-14T04:58:17.304Z,99975.97
2022-10-14T05:00:44.381Z,99967.28
2022-10-14T05:03:11.396Z,99964.44
2022-10-14T05:05:38.318Z,99961.06
2022-10-14T05:08:05.696Z,99959.34
2022-10-14T05:10:33.799Z,99961.16
2022-10-14T05:13:00.816Z,99949.72
2022-10-14T05:15:27.656Z,99955.25
2022-10-14T05:17:54.614Z,99956.19
2022-10-14T05:20:21.449Z,99961.56
2022-10-14T05:22:48.352Z,99958.84
2022-10-14T05:25:15.427Z,99957.03
2022-10-14T05:27:42.377Z,99935.75
2022-10-14T05:30:10.076Z,99972.59
2022-10-14T05:32:37.272Z,99979.59
2022-10-14T05:35:04.919Z,99967.09
2022-10-14T05:37:31.768Z,99977.66
2022-10-14T05:39:58.703Z,99958.22
2022-10-14T05:42:25.627Z,99954.50
2022-10-14T05:44:52.427Z,99954.59
2022-10-14T05:47:19.245Z,99966.66
2022-10-14T05:49:46.067Z,99953.44
2022-10-14T05:52:12.892Z,99969.19
2022-10-14T05:54:39.752Z,99977.00
2022-10-14T05:57:06.655Z,99975.13
2022-10-14T05:59:35.022Z,99964.53
2022-10-14T06:02:03.060Z,99970.38
2022-10-14T06:04:30.299Z,99968.56
2022-10-14T06:06:57.159Z,99958.78
2022-10-14T06:09:24.023Z,99956.28
2022-10-14T06:11:50.921Z,99962.41
2022-10-14T06:14:17.847Z,99968.56
2022-10-14T06:16:44.799Z,99957.00
2022-10-14T06:19:11.609Z,99974.69
2022-10-14T06:21:38.690Z,99981.69
2022-10-14T06:24:05.967Z,99978.19
2022-10-14T06:26:33.033Z,99960.28
2022-10-14T06:29:00.025Z,99971.81
2022-10-14T06:31:31.345Z,99951.53
2022-10-14T06:33:59.425Z,99964.97
2022-10-14T06:36:27.021Z,99963.25
2022-10-14T06:38:54.739Z,99954.38
2022-10-14T06:41:21.593Z,99958.81
2022-10-14T06:43:48.559Z,99956.16
2022-10-14T06:46:15.457Z,99957.22
2022-10-14T06:48:45.719Z,99963.50
2022-10-14T06:51:14.949Z,99960.94
2022-10-14T06:53:42.485Z,99949.50
2022-10-14T06:56:12.128Z,99964.53
2022-10-14T06:58:39.199Z,99954.06
2022-10-14T07:01:08.466Z,99953.34
2022-10-14T07:03:37.202Z,99951.41
2022-10-14T07:06:05.200Z,99963.72
2022-10-14T07:08:32.517Z,99955.78
2022-10-14T07:10:59.595Z,99948.56
2022-10-14T07:13:27.056Z,99968.78
2022-10-14T07:15:53.959Z,99968.03
2022-10-14T07:18:20.981Z,99973.97
2022-10-14T07:20:47.961Z,99982.75
2022-10-14T07:23:15.107Z,99976.63
2022-10-14T07:25:42.195Z,99975.56
2022-10-14T07:28:09.891Z,99986.13
2022-10-14T07:30:37.032Z,99987.84
2022-10-14T07:33:04.136Z,100000.97
2022-10-14T07:35:31.150Z,99989.50
2022-10-14T07:37:59.775Z,99993.13
2022-10-14T07:40:27.869Z,99992.16
2022-10-14T07:42:54.788Z,99985.94
2022-10-14T07:45:21.869Z,99983.16
2022-10-14T07:47:51.217Z,99975.13
2022-10-14T07:50:19.056Z,99972.56
2022-10-14T07:52:45.961Z,99976.72
2022-10-14T07:55:12.981Z,99975.22
2022-10-14T07:57:39.965Z,99980.44
2022-10-14T08:00:07.811Z,99973.09
2022-10-14T08:02:35.105Z,99976.50
2022-10-14T08:07:49.380Z,99978.31
2022-10-14T08:10:16.862Z,99981.81
2022-10-14T08:12:44.118Z,99985.41
2022-10-14T08:15:11.176Z,99988.16
2022-10-14T08:17:38.152Z,99987.31
2022-10-14T08:20:05.579Z,99986.34
2022-10-14T08:22:32.654Z,99978.50
2022-10-14T08:24:59.713Z,99989.31
2022-10-14T08:27:27.163Z,99991.00
2022-10-14T08:29:55.200Z,99989.31
2022-10-14T08:32:23.869Z,99993.66
2022-10-14T08:34:51.122Z,99999.47
2022-10-14T08:37:18.246Z,99992.47
2022-10-14T08:39:45.240Z,99987.91
2022-10-14T08:42:40.256Z,99984.25
2022-10-14T08:45:39.655Z,99992.28
2022-10-14T08:48:16.347Z,99993.97
2022-10-14T08:51:15.959Z,100002.78
2022-10-14T08:53:51.388Z,99997.56
2022-10-14T08:56:19.920Z,99993.13
2022-10-14T08:58:52.651Z,99992.91
2022-10-14T09:01:22.991Z,99991.00
2022-10-14T09:03:54.224Z,99987.50
2022-10-14T09:06:28.322Z,99998.00
2022-10-14T09:09:00.636Z,99999.06
2022-10-14T09:11:33.565Z,100000.13
2022-10-14T09:14:02.569Z,99992.28
2022-10-14T09:16:34.495Z,99989.63
2022-10-14T09:19:04.387Z,99986.13
2022-10-14T09:21:52.280Z,99988.69
2022-10-14T09:24:29.375Z,99981.59
2022-10-14T09:27:05.678Z,99983.25
2022-10-14T09:29:34.623Z,99985.06
2022-10-14T09:32:09.480Z,99982.41
2022-10-14T09:34:45.305Z,99984.25
2022-10-14T09:37:32.374Z,99974.47
2022-10-14T09:40:03.801Z,99974.47
2022-10-14T09:42:44.609Z,99963.88
2022-10-14T09:45:22.933Z,99962.94
2022-10-14T09:47:57.362Z,99956.91
2022-10-14T09:50:36.425Z,99955.84
2022-10-14T09:53:14.951Z,99953.28
2022-10-14T09:56:00.132Z,99950.44
2022-10-14T09:58:53.984Z,99946.84
2022-10-14T10:01:24.141Z,99940.34
2022-10-14T10:03:52.890Z,99933.28
2022-10-14T10:06:27.402Z,99931.47
2022-10-14T10:08:54.362Z,99933.19
2022-10-14T10:11:39.464Z,99931.34
2022-10-14T10:14:18.918Z,99930.41
2022-10-14T10:16:45.970Z,99930.19
2022-10-14T10:19:32.586Z,99923.00
2022-10-14T10:25:09.075Z,99921.84
2022-10-14T10:27:36.730Z,99923.53
2022-10-14T10:30:24.988Z,99920.03
2022-10-14T10:32:57.823Z,99920.03
2022-10-14T10:35:37.280Z,99912.00
2022-10-14T10:38:16.099Z,99909.34
2022-10-14T10:40:53.778Z,99908.50
2022-10-14T10:43:33.196Z,99909.44
2022-10-14T10:46:11.941Z,99911.13
2022-10-14T10:48:50.494Z,99911.13
2022-10-14T10:51:43.335Z,99903.31
2022-10-14T10:54:35.226Z,99902.47
2022-10-14T10:57:09.644Z,99909.44
2022-10-14T11:00:18.731Z,99900.53
2022-10-14T11:03:10.846Z,99901.81
2022-10-14T11:05:41.933Z,99903.53
2022-10-14T11:08:39.566Z,99895.47
2022-10-14T11:11:47.100Z,99898.22
2022-10-14T11:14:34.100Z,99891.97
2022-10-14T11:17:04.015Z,99890.16
2022-10-14T11:19:42.956Z,99885.72
2022-10-14T11:22:34.392Z,99891.03
2022-10-14T11:25:18.236Z,99890.16
2022-10-14T11:27:49.114Z,99891.88
2022-10-14T11:30:19.529Z,99875.00
2022-10-14T11:32:52.230Z,99878.41
2022-10-14T11:38:20.868Z,99874.06
2022-10-14T11:40:53.665Z,99883.72
2022-10-14T11:43:42.125Z,99876.50
2022-10-14T11:46:12.434Z,99870.47
2022-10-14T11:48:52.474Z,99875.50
2022-10-14T11:51:35.575Z,99866.84
2022-10-14T11:54:19.021Z,99865.16
2022-10-14T11:57:02.412Z,99861.53
2022-10-14T11:59:38.027Z,99857.94
2022-10-14T12:02:37.021Z,99862.28
2022-10-14T12:05:41.150Z,99851.81
2022-10-14T12:08:21.389Z,99856.97
2022-10-14T12:11:07.580Z,99855.19
2022-10-14T12:13:47.750Z,99853.38
2022-10-14T12:16:18.032Z,99845.44
2022-10-14T12:18:47.287Z,99838.22
2022-10-14T12:21:29.403Z,99839.78
2022-10-14T12:24:04.964Z,99836.06
2022-10-14T12:26:43.887Z,99838.50
2022-10-14T12:29:15.749Z,99833.81
2022-10-14T12:31:49.678Z,99839.00
2022-10-14T12:34:29.338Z,99840.47
2022-10-14T12:36:56.245Z,99830.59
2022-10-14T12:39:32.025Z,99834.97
2022-10-14T12:42:11.673Z,99840.84
2022-10-14T12:44:48.412Z,99829.44
2022-10-14T12:47:23.344Z,99825.56
2022-10-14T12:49:54.128Z,99837.88
2022-10-14T12:52:27.360Z,99840.41
2022-10-14T12:54:55.514Z,99833.31
2022-10-14T12:57:36.247Z,99832.34
2022-10-14T13:00:22.613Z,99842.94
2022-10-14T13:03:21.451Z,99834.03
2022-10-14T13:05:48.571Z,99834.16
2022-10-14T13:08:21.320Z,99835.72
2022-10-14T13:11:12.495Z,99834.66
2022-10-14T13:13:42.589Z,99833.16
2022-10-14T13:16:30.355Z,99830.44
2022-10-14T13:19:01.058Z,99824.28
2022-10-14T13:21:51.896Z,99821.50
2022-10-14T13:24:33.270Z,99811.88
2022-10-14T13:27:31.188Z,99806.34
2022-10-14T13:30:16.694Z,99815.16
2022-10-14T13:32:50.704Z,99813.22
2022-10-14T13:35:45.974Z,99805.28
2022-10-14T13:38:19.745Z,99806.84
2022-10-14T13:40:56.768Z,99813.22
2022-10-14T13:43:29.016Z,99814.03
2022-10-14T13:45:58.725Z,99805.69
2022-10-14T13:48:32.782Z,99806.75
2022-10-14T13:51:39.474Z,99810.53
2022-10-14T13:54:17.134Z,99805.59
2022-10-14T13:56:44.622Z,99795.84
2022-10-14T13:59:43.268Z,99809.72
2022-10-14T14:02:21.592Z,99803.47
2022-10-14T14:04:52.649Z,99796.25
2022-10-14T14:07:59.660Z,99797.91
2022-10-14T14:10:12.729Z,99817.22
2022-10-14T14:12:43.443Z,99804.69
2022-10-14T14:15:30.230Z,99799.63
2022-10-14T14:17:57.400Z,99817.00
2022-10-14T14:20:28.819Z,99817.00
2022-10-14T14:22:58.868Z,99808.78
2022-10-14T14:25:35.429Z,99808.56
2022-10-14T14:28:08.061Z,99812.91
2022-10-14T14:30:36.257Z,99823.28
2022-10-14T14:33:16.045Z,99810.75
2022-10-14T14:35:54.098Z,99814.97
2022-10-14T14:38:30.031Z,99810.28
2022-10-14T14:41:02.802Z,99817.25
2022-10-14T14:43:36.428Z,99817.03
2022-10-14T14:46:05.875Z,99810.78
2022-10-14T14:48:34.449Z,99823.91
2022-10-14T14:51:02.264Z,99829.81
2022-10-14T14:53:32.715Z,99824.63
2022-10-14T14:56:13.571Z,99827.25
2022-10-14T14:58:52.933Z,99829.09
2022-10-14T15:01:24.266Z,99842.34
2022-10-14T15:04:15.738Z,99852.97
2022-10-14T15:06:51.902Z,99864.28
2022-10-14T15:09:30.631Z,99858.75
2022-10-14T15:11:58.176Z,99857.09
2022-10-14T15:14:47.827Z,99862.53
2022-10-14T15:17:35.970Z,99843.50
2022-10-14T15:20:05.954Z,99854.50
2022-10-14T15:22:40.257Z,99861.00
2022-10-14T15:25:25.702Z,99854.38
2022-10-14T15:27:54.079Z,99860.31
2022-10-14T15:30:21.245Z,99863.44
2022-10-14T15:32:49.280Z,99858.59
2022-10-14T15:35:18.901Z,99851.13
2022-10-14T15:37:46.427Z,99862.22
2022-10-14T15:40:16.314Z,99861.97
2022-10-14T15:42:43.247Z,99852.56
2022-10-14T15:45:10.547Z,99854.25
2022-10-14T15:47:38.547Z,99852.31
2022-10-14T15:50:25.780Z,99848.69
2022-10-14T15:52:54.421Z,99850.13
2022-10-14T15:55:28.555Z,99838.41
2022-10-14T15:57:55.491Z,99838.56
2022-10-14T16:00:24.864Z,99832.25
2022-10-14T16:02:58.721Z,99833.72
2022-10-14T16:05:29.991Z,99839.72
2022-10-14T16:07:57.791Z,99835.03
2022-10-14T16:10:28.199Z,99826.69
2022-10-14T16:12:57.661Z,99821.38
2022-10-14T16:15:33.651Z,99821.84
2022-10-14T16:18:00.927Z,99831.97
2022-10-14T16:20:28.492Z,99836.94
2022-10-14T16:22:55.423Z,99834.16
2022-10-14T16:25:24.336Z,99830.50
2022-10-14T16:27:51.408Z,99836.28
2022-10-14T16:30:18.523Z,99836.28
2022-10-14T16:32:45.450Z,99832.81
2022-10-14T16:35:12.689Z,99834.25
2022-10-14T16:37:40.955Z,99833.63
2022-10-14T16:40:11.040Z,99829.31
2022-10-14T16:42:38.008Z,99835.81
2022-10-14T16:45:05.777Z,99832.19
2022-10-14T16:47:32.875Z,99826.88
2022-10-14T16:50:00.218Z,99836.41
2022-10-14T16:52:27.325Z,99822.97
2022-10-14T16:54:54.508Z,99832.44
2022-10-14T16:57:21.753Z,99829.06
2022-10-14T16:59:48.809Z,99830.88
2022-10-14T17:02:16.956Z,99835.34
2022-10-14T17:04:46.650Z,99836.03
2022-10-14T17:07:15.339Z,99829.78
2022-10-14T17:09:42.429Z,99829.53
2022-10-14T17:12:13.808Z,99848.13
2022-10-14T17:14:41.963Z,99841.38
2022-10-14T17:17:09.148Z,99841.97
2022-10-14T17:19:36.528Z,99844.47
2022-10-14T17:22:03.649Z,99840.41
2022-10-14T17:24:30.742Z,99846.44
2022-10-14T17:26:57.811Z,99840.72
2022-10-14T17:29:24.858Z,99845.94
2022-10-14T17:31:51.881Z,99850.75
2022-10-14T17:34:18.830Z,99859.69
2022-10-14T17:36:45.771Z,99854.38
2022-10-14T17:39:16.482Z,99870.19
2022-10-14T17:41:48.451Z,99870.91
2022-10-14T17:44:15.842Z,99872.03
2022-10-14T17:46:43.623Z,99874.69
2022-10-14T17:49:11.233Z,99874.41
2022-10-14T17:51:39.391Z,99866.56
2022-10-14T17:54:09.743Z,99875.84
2022-10-14T17:56:38.532Z,99864.97
2022-10-14T17:59:08.472Z,99864.56
2022-10-14T18:01:37.899Z,99865.53
2022-10-14T18:04:17.670Z,99868.94
2022-10-14T18:06:45.841Z,99877.63
2022-10-14T18:09:13.471Z,99888.97
2022-10-14T18:14:30.889Z,99878.06
2022-10-14T18:16:59.605Z,99872.50
2022-10-14T18:19:27.371Z,99859.06
2022-10-14T18:21:54.338Z,99874.78
2022-10-14T18:24:21.325Z,99864.84
2022-10-14T18:26:50.952Z,99858.56
2022-10-14T18:29:17.908Z,99870.16
2022-10-14T18:31:45.229Z,99863.19
2022-10-14T18:34:12.585Z,99866.53
2022-10-14T18:36:39.742Z,99874.41
2022-10-14T18:39:09.069Z,99880.56
2022-10-14T18:41:39.516Z,99882.75
2022-10-14T18:44:07.364Z,99885.41
2022-10-14T18:46:37.055Z,99887.97
2022-10-14T18:49:06.148Z,99890.16
2022-10-14T18:51:35.780Z,99898.75
2022-10-14T18:54:08.896Z,99889.84
2022-10-14T18:56:39.153Z,99889.28
2022-10-14T18:59:12.098Z,99879.72
2022-10-14T19:01:40.389Z,99871.41
2022-10-14T19:04:10.428Z,99863.53
2022-10-14T19:06:38.114Z,99863.81
2022-10-14T19:09:06.029Z,99872.16
2022-10-14T19:11:34.915Z,99866.28
2022-10-14T19:14:04.770Z,99871.69
2022-10-14T19:16:34.857Z,99871.81
2022-10-14T19:19:08.192Z,99864.34
2022-10-14T19:21:37.166Z,99861.69
2022-10-14T19:24:04.920Z,99858.31
2022-10-14T19:26:35.620Z,99867.25
2022-10-14T19:29:06.534Z,99861.34
2022-10-14T19:31:38.178Z,99870.34
2022-10-14T19:34:07.737Z,99875.34
2022-10-14T19:36:37.383Z,99871.72
2022-10-14T19:39:06.070Z,99869.41
2022-10-14T19:41:38.887Z,99859.66
2022-10-14T19:44:06.536Z,99852.91
2022-10-14T19:46:33.554Z,99846.28
2022-10-14T19:49:05.291Z,99842.88
2022-10-14T19:51:34.134Z,99852.78
2022-10-14T19:54:01.734Z,99850.38
2022-10-14T19:56:29.763Z,99842.41
2022-10-14T19:58:58.883Z,99847.94
2022-10-14T20:01:28.850Z,99841.94
2022-10-14T20:03:56.845Z,99836.84
2022-10-14T20:06:24.621Z,99852.06
2022-10-14T20:08:52.077Z,99857.53
2022-10-14T20:11:22.417Z,99854.13
2022-10-14T20:13:49.580Z,99857.03
2022-10-14T20:16:17.776Z,99853.53
2022-10-14T20:18:44.876Z,99844.13
2022-10-14T20:21:15.368Z,99837.13
2022-10-14T20:23:42.874Z,99839.03
2022-10-14T20:26:18.541Z,99841.97
2022-10-14T20:28:46.115Z,99831.47
2022-10-14T20:31:15.918Z,99834.97
2022-10-14T20:33:43.854Z,99829.88
2022-10-14T20:36:13.972Z,99838.81
2022-10-14T20:38:42.144Z,99836.53
2022-10-14T20:41:26.760Z,99840.41
2022-10-14T20:43:55.423Z,99829.31
2022-10-14T20:46:25.247Z,99836.50
2022-10-14T20:48:57.058Z,99830.72
2022-10-14T20:51:25.362Z,99830.97
2022-10-14T20:54:02.699Z,99832.06
2022-10-14T20:56:32.897Z,99817.34
2022-10-14T20:59:01.850Z,99820.25
2022-10-14T21:01:30.884Z,99809.09
2022-10-14T21:04:02.025Z,99812.00
2022-10-14T21:06:29.454Z,99806.22
2022-10-14T21:08:58.041Z,99804.63
2022-10-14T21:11:26.344Z,99800.41
2022-10-14T21:13:55.969Z,99798.72
2022-10-14T21:16:25.955Z,99805.09
2022-10-14T21:19:04.942Z,99802.59
2022-10-14T21:21:41.647Z,99803.66
2022-10-14T21:24:13.509Z,99807.63
2022-10-14T21:26:40.711Z,99803.28
2022-10-14T21:29:08.038Z,99793.88
2022-10-14T21:31:35.393Z,99797.63
2022-10-14T21:34:06.167Z,99795.28
2022-10-14T21:36:35.344Z,99793.84
2022-10-14T21:39:06.941Z,99789.72
2022-10-14T21:41:35.291Z,99790.72
2022-10-14T21:44:02.294Z,99779.38
2022-10-14T21:46:29.308Z,99773.47
2022-10-14T21:48:57.640Z,99772.75
2022-10-14T21:51:26.921Z,99780.81
2022-10-14T21:53:54.343Z,99774.06
2022-10-14T21:56:22.227Z,99771.75
2022-10-14T21:58:49.209Z,99770.88
2022-10-14T22:01:21.577Z,99779.81
2022-10-14T22:04:00.362Z,99760.56
2022-10-14T22:06:29.097Z,99767.03
2022-10-14T22:08:58.719Z,99753.91
2022-10-14T22:11:27.294Z,99752.94
2022-10-14T22:13:55.952Z,99741.75
2022-10-14T22:16:23.127Z,99748.94
2022-10-14T22:18:51.876Z,99741.13
2022-10-14T22:21:21.738Z,99742.06
2022-10-14T22:23:50.066Z,99751.09
2022-10-14T22:26:23.689Z,99753.97
2022-10-14T22:28:56.765Z,99750.50
2022-10-14T22:31:23.984Z,99742.66
2022-10-14T22:33:51.098Z,99745.41
2022-10-14T22:36:23.586Z,99750.09
2022-10-14T22:38:53.499Z,99746.59
2022-10-14T22:41:22.079Z,99742.38
2022-10-14T22:43:51.691Z,99737.31
2022-10-14T22:46:20.700Z,99732.97
2022-10-14T22:48:48.906Z,99736.81
2022-10-14T22:51:19.167Z,99734.16
2022-10-14T22:53:47.334Z,99729.84
2022-10-14T22:56:17.325Z,99728.09
2022-10-14T22:58:44.475Z,99728.22
2022-10-14T23:01:14.404Z,99727.38
2022-10-14T23:03:42.326Z,99725.91
2022-10-14T23:06:13.217Z,99722.53
2022-10-14T23:08:40.489Z,99720.84
2022-10-14T23:11:08.488Z,99716.53
2022-10-14T23:13:35.408Z,99707.84
2022-10-14T23:16:07.857Z,99700.00
2022-10-14T23:18:36.779Z,99694.72
2022-10-14T23:21:23.569Z,99704.56
2022-10-14T23:23:51.775Z,99690.00
2022-10-14T23:26:22.329Z,99695.28
2022-10-14T23:28:54.434Z,99694.56
2022-10-14T23:31:24.281Z,99699.88
2022-10-14T23:33:52.715Z,99697.22
2022-10-14T23:36:21.695Z,99686.84
2022-10-14T23:38:48.914Z,99692.13
2022-10-14T23:41:15.955Z,99694.06
2022-10-14T23:43:43.013Z,99688.00
2022-10-14T23:46:10.007Z,99689.94
2022-10-14T23:48:37.818Z,99688.28
2022-10-14T23:51:04.751Z,99683.94
2022-10-14T23:53:31.904Z,99674.50
2022-10-14T23:55:58.761Z,99674.50
2022-10-14T23:58:28.709Z,99671.13
